sensor_id;sensor_type;location;lat;lon;timestamp;pressure;altitude;pressure_sealevel;temperature
75428;BMP280;64008;55.612;37.698;2023-03-15T00:00:18;99051.19;;;14.81
75428;BMP280;64008;55.612;37.698;2023-03-15T00:02:44;99057.97;;;15.13
75428;BMP280;64008;55.612;37.698;2023-03-15T00:05:12;99053.00;;;14.26
75428;BMP280;64008;55.612;37.698;2023-03-15T00:07:38;99054.88;;;14.00
75428;BMP280;64008;55.612;37.698;2023-03-15T00:10:04;99046.19;;;14.80
75428;BMP280;64008;55.612;37.698;2023-03-15T00:12:29;99052.88;;;14.72
75428;BMP280;64008;55.612;37.698;2023-03-15T00:14:56;99056.84;;;14.74
75428;BMP280;64008;55.612;37.698;2023-03-15T00:17:21;99057.19;;;15.52
75428;BMP280;64008;55.612;37.698;2023-03-15T00:19:47;99055.63;;;15.06
75428;BMP280;64008;55.612;37.698;2023-03-15T00:22:13;99059.44;;;15.34
75428;BMP280;64008;55.612;37.698;2023-03-15T00:24:38;99045.97;;;15.60
75428;BMP280;64008;55.612;37.698;2023-03-15T00:27:04;99049.06;;;14.88
75428;BMP280;64008;55.612;37.698;2023-03-15T00:29:31;99047.91;;;15.05
75428;BMP280;64008;55.612;37.698;2023-03-15T00:31:56;99052.09;;;14.61
75428;BMP280;64008;55.612;37.698;2023-03-15T00:34:22;99053.91;;;14.71
75428;BMP280;64008;55.612;37.698;2023-03-15T00:36:51;99047.56;;;14.72
75428;BMP280;64008;55.612;37.698;2023-03-15T00:39:20;99054.91;;;14.90
75428;BMP280;64008;55.612;37.698;2023-03-15T00:41:46;99049.75;;;14.39
75428;BMP280;64008;55.612;37.698;2023-03-15T00:44:12;99040.31;;;14.83
75428;BMP280;64008;55.612;37.698;2023-03-15T00:46:37;99043.19;;;14.96
75428;BMP280;64008;55.612;37.698;2023-03-15T00:49:03;99048.38;;;14.67
75428;BMP280;64008;55.612;37.698;2023-03-15T00:51:29;99045.50;;;14.43
75428;BMP280;64008;55.612;37.698;2023-03-15T00:53:55;99043.06;;;14.52
75428;BMP280;64008;55.612;37.698;2023-03-15T00:56:22;99043.59;;;14.59
75428;BMP280;64008;55.612;37.698;2023-03-15T00:58:49;99048.97;;;14.39
75428;BMP280;64008;55.612;37.698;2023-03-15T01:01:23;99047.28;;;14.63
75428;BMP280;64008;55.612;37.698;2023-03-15T01:03:49;99042.25;;;15.16
75428;BMP280;64008;55.612;37.698;2023-03-15T01:06:18;99041.81;;;15.04
75428;BMP280;64008;55.612;37.698;2023-03-15T01:08:44;99038.16;;;14.90
75428;BMP280;64008;55.612;37.698;2023-03-15T01:11:13;99040.03;;;14.84
75428;BMP280;64008;55.612;37.698;2023-03-15T01:13:39;99048.06;;;14.74
75428;BMP280;64008;55.612;37.698;2023-03-15T01:16:05;99052.59;;;14.73
75428;BMP280;64008;55.612;37.698;2023-03-15T01:18:31;99044.28;;;14.90
75428;BMP280;64008;55.612;37.698;2023-03-15T01:20:57;99048.88;;;15.24
75428;BMP280;64008;55.612;37.698;2023-03-15T01:23:23;99050.25;;;15.11
75428;BMP280;64008;55.612;37.698;2023-03-15T01:25:49;99049.00;;;14.18
75428;BMP280;64008;55.612;37.698;2023-03-15T01:28:15;99046.59;;;14.22
75428;BMP280;64008;55.612;37.698;2023-03-15T01:30:48;99049.72;;;14.54
75428;BMP280;64008;55.612;37.698;2023-03-15T01:33:14;99047.13;;;14.19
75428;BMP280;64008;55.612;37.698;2023-03-15T01:35:39;99043.22;;;14.81
75428;BMP280;64008;55.612;37.698;2023-03-15T01:38:05;99049.00;;;14.98
75428;BMP280;64008;55.612;37.698;2023-03-15T01:40:30;99044.50;;;14.94
75428;BMP280;64008;55.612;37.698;2023-03-15T01:48:40;99039.47;;;14.92
75428;BMP280;64008;55.612;37.698;2023-03-15T01:53:42;99038.78;;;14.66
75428;BMP280;64008;55.612;37.698;2023-03-15T01:56:08;99048.75;;;14.95
75428;BMP280;64008;55.612;37.698;2023-03-15T01:58:35;99039.66;;;15.46
75428;BMP280;64008;55.612;37.698;2023-03-15T02:01:02;99043.84;;;14.68
75428;BMP280;64008;55.612;37.698;2023-03-15T02:03:34;99050.25;;;14.51
75428;BMP280;64008;55.612;37.698;2023-03-15T02:06:06;99050.38;;;14.96
75428;BMP280;64008;55.612;37.698;2023-03-15T02:08:38;99044.38;;;14.65
75428;BMP280;64008;55.612;37.698;2023-03-15T02:11:06;99042.28;;;14.56
75428;BMP280;64008;55.612;37.698;2023-03-15T02:13:32;99046.84;;;15.01
75428;BMP280;64008;55.612;37.698;2023-03-15T02:15:59;99043.97;;;14.97
75428;BMP280;64008;55.612;37.698;2023-03-15T02:18:24;99050.63;;;14.89
75428;BMP280;64008;55.612;37.698;2023-03-15T02:23:22;99057.78;;;15.04
75428;BMP280;64008;55.612;37.698;2023-03-15T02:26:19;99067.16;;;14.91
75428;BMP280;64008;55.612;37.698;2023-03-15T02:28:45;99061.94;;;14.55
75428;BMP280;64008;55.612;37.698;2023-03-15T02:31:11;99063.06;;;14.29
75428;BMP280;64008;55.612;37.698;2023-03-15T02:33:44;99066.78;;;14.38
75428;BMP280;64008;55.612;37.698;2023-03-15T02:36:25;99061.53;;;14.93
75428;BMP280;64008;55.612;37.698;2023-03-15T02:38:51;99060.13;;;15.11
75428;BMP280;64008;55.612;37.698;2023-03-15T02:41:26;99063.00;;;14.60
75428;BMP280;64008;55.612;37.698;2023-03-15T02:43:54;99060.03;;;14.71
75428;BMP280;64008;55.612;37.698;2023-03-15T02:46:22;99062.28;;;14.98
75428;BMP280;64008;55.612;37.698;2023-03-15T02:48:48;99059.31;;;15.10
75428;BMP280;64008;55.612;37.698;2023-03-15T02:51:23;99056.47;;;14.96
75428;BMP280;64008;55.612;37.698;2023-03-15T02:53:48;99055.91;;;14.99
75428;BMP280;64008;55.612;37.698;2023-03-15T02:56:15;99068.50;;;15.38
75428;BMP280;64008;55.612;37.698;2023-03-15T02:58:41;99065.47;;;15.06
75428;BMP280;64008;55.612;37.698;2023-03-15T03:01:13;99062.13;;;15.29
75428;BMP280;64008;55.612;37.698;2023-03-15T03:03:44;99058.44;;;14.70
75428;BMP280;64008;55.612;37.698;2023-03-15T03:06:11;99069.34;;;14.69
75428;BMP280;64008;55.612;37.698;2023-03-15T03:08:37;99077.22;;;15.44
75428;BMP280;64008;55.612;37.698;2023-03-15T03:11:03;99071.31;;;15.52
75428;BMP280;64008;55.612;37.698;2023-03-15T03:13:29;99063.97;;;15.34
75428;BMP280;64008;55.612;37.698;2023-03-15T03:15:55;99069.63;;;14.67
75428;BMP280;64008;55.612;37.698;2023-03-15T03:18:24;99072.25;;;14.72
75428;BMP280;64008;55.612;37.698;2023-03-15T03:20:50;99068.56;;;14.73
75428;BMP280;64008;55.612;37.698;2023-03-15T03:23:16;99072.09;;;14.28
75428;BMP280;64008;55.612;37.698;2023-03-15T03:25:41;99061.44;;;14.48
75428;BMP280;64008;55.612;37.698;2023-03-15T03:28:09;99078.25;;;15.04
75428;BMP280;64008;55.612;37.698;2023-03-15T03:30:35;99069.25;;;14.94
75428;BMP280;64008;55.612;37.698;2023-03-15T03:33:00;99073.84;;;14.78
75428;BMP280;64008;55.612;37.698;2023-03-15T03:35:26;99074.63;;;14.79
75428;BMP280;64008;55.612;37.698;2023-03-15T03:37:51;99070.22;;;14.33
75428;BMP280;64008;55.612;37.698;2023-03-15T03:40:18;99068.38;;;14.19
75428;BMP280;64008;55.612;37.698;2023-03-15T03:42:43;99065.47;;;14.30
75428;BMP280;64008;55.612;37.698;2023-03-15T03:45:09;99070.19;;;14.59
75428;BMP280;64008;55.612;37.698;2023-03-15T03:47:35;99074.66;;;14.74
75428;BMP280;64008;55.612;37.698;2023-03-15T03:50:00;99079.44;;;14.67
75428;BMP280;64008;55.612;37.698;2023-03-15T03:52:26;99083.00;;;13.90
75428;BMP280;64008;55.612;37.698;2023-03-15T03:54:52;99083.25;;;14.30
75428;BMP280;64008;55.612;37.698;2023-03-15T03:57:17;99083.50;;;14.33
75428;BMP280;64008;55.612;37.698;2023-03-15T03:59:42;99084.09;;;15.06
75428;BMP280;64008;55.612;37.698;2023-03-15T04:02:08;99081.44;;;15.06
75428;BMP280;64008;55.612;37.698;2023-03-15T04:04:34;99077.09;;;15.25
75428;BMP280;64008;55.612;37.698;2023-03-15T04:06:59;99083.63;;;15.43
75428;BMP280;64008;55.612;37.698;2023-03-15T04:09:25;99081.97;;;15.52
75428;BMP280;64008;55.612;37.698;2023-03-15T04:11:50;99087.91;;;15.78
75428;BMP280;64008;55.612;37.698;2023-03-15T04:14:16;99077.28;;;15.68
75428;BMP280;64008;55.612;37.698;2023-03-15T04:16:41;99088.91;;;15.82
75428;BMP280;64008;55.612;37.698;2023-03-15T04:19:07;99081.69;;;15.88
75428;BMP280;64008;55.612;37.698;2023-03-15T04:21:33;99094.78;;;15.79
75428;BMP280;64008;55.612;37.698;2023-03-15T04:24:00;99083.41;;;16.03
75428;BMP280;64008;55.612;37.698;2023-03-15T04:26:27;99086.53;;;15.81
75428;BMP280;64008;55.612;37.698;2023-03-15T04:28:54;99093.25;;;15.73
75428;BMP280;64008;55.612;37.698;2023-03-15T04:31:20;99093.41;;;15.87
75428;BMP280;64008;55.612;37.698;2023-03-15T04:33:45;99093.69;;;15.86
75428;BMP280;64008;55.612;37.698;2023-03-15T04:36:11;99096.53;;;15.99
75428;BMP280;64008;55.612;37.698;2023-03-15T04:38:45;99093.09;;;15.94
75428;BMP280;64008;55.612;37.698;2023-03-15T04:41:12;99087.13;;;16.02
75428;BMP280;64008;55.612;37.698;2023-03-15T04:43:37;99102.03;;;15.74
75428;BMP280;64008;55.612;37.698;2023-03-15T04:46:03;99112.03;;;15.53
75428;BMP280;64008;55.612;37.698;2023-03-15T04:48:29;99109.06;;;15.99
75428;BMP280;64008;55.612;37.698;2023-03-15T04:50:55;99113.13;;;15.86
75428;BMP280;64008;55.612;37.698;2023-03-15T04:53:21;99107.75;;;15.91
75428;BMP280;64008;55.612;37.698;2023-03-15T04:55:46;99104.72;;;16.03
75428;BMP280;64008;55.612;37.698;2023-03-15T04:58:12;99104.25;;;15.96
75428;BMP280;64008;55.612;37.698;2023-03-15T05:00:37;99098.25;;;15.80
75428;BMP280;64008;55.612;37.698;2023-03-15T05:03:03;99104.53;;;16.23
75428;BMP280;64008;55.612;37.698;2023-03-15T05:05:31;99123.31;;;16.08
75428;BMP280;64008;55.612;37.698;2023-03-15T05:07:57;99111.34;;;16.11
75428;BMP280;64008;55.612;37.698;2023-03-15T05:10:23;99118.44;;;16.20
75428;BMP280;64008;55.612;37.698;2023-03-15T05:12:50;99118.25;;;16.41
75428;BMP280;64008;55.612;37.698;2023-03-15T05:15:16;99119.03;;;16.41
75428;BMP280;64008;55.612;37.698;2023-03-15T05:17:42;99131.19;;;16.53
75428;BMP280;64008;55.612;37.698;2023-03-15T05:20:11;99121.47;;;16.62
75428;BMP280;64008;55.612;37.698;2023-03-15T05:22:37;99129.19;;;16.10
75428;BMP280;64008;55.612;37.698;2023-03-15T05:25:03;99137.22;;;16.63
75428;BMP280;64008;55.612;37.698;2023-03-15T05:27:29;99138.44;;;16.47
75428;BMP280;64008;55.612;37.698;2023-03-15T05:29:56;99144.25;;;16.25
75428;BMP280;64008;55.612;37.698;2023-03-15T05:32:22;99134.97;;;16.47
75428;BMP280;64008;55.612;37.698;2023-03-15T05:34:51;99145.38;;;16.72
75428;BMP280;64008;55.612;37.698;2023-03-15T05:37:20;99142.31;;;17.03
75428;BMP280;64008;55.612;37.698;2023-03-15T05:39:46;99137.13;;;17.17
75428;BMP280;64008;55.612;37.698;2023-03-15T05:42:11;99136.66;;;17.28
75428;BMP280;64008;55.612;37.698;2023-03-15T05:44:37;99149.00;;;17.24
75428;BMP280;64008;55.612;37.698;2023-03-15T05:47:03;99136.03;;;17.37
75428;BMP280;64008;55.612;37.698;2023-03-15T05:49:29;99143.97;;;17.42
75428;BMP280;64008;55.612;37.698;2023-03-15T05:51:55;99147.13;;;17.63
75428;BMP280;64008;55.612;37.698;2023-03-15T05:54:20;99149.72;;;17.49
75428;BMP280;64008;55.612;37.698;2023-03-15T05:56:46;99157.47;;;17.50
75428;BMP280;64008;55.612;37.698;2023-03-15T05:59:11;99165.31;;;17.61
75428;BMP280;64008;55.612;37.698;2023-03-15T06:01:37;99155.16;;;17.63
75428;BMP280;64008;55.612;37.698;2023-03-15T06:04:03;99175.56;;;17.72
75428;BMP280;64008;55.612;37.698;2023-03-15T06:06:29;99176.56;;;17.77
75428;BMP280;64008;55.612;37.698;2023-03-15T06:08:54;99174.00;;;17.71
75428;BMP280;64008;55.612;37.698;2023-03-15T06:11:20;99161.41;;;17.72
75428;BMP280;64008;55.612;37.698;2023-03-15T06:13:46;99174.19;;;17.75
75428;BMP280;64008;55.612;37.698;2023-03-15T06:16:11;99180.28;;;17.94
75428;BMP280;64008;55.612;37.698;2023-03-15T06:18:37;99180.88;;;17.91
75428;BMP280;64008;55.612;37.698;2023-03-15T06:21:02;99181.63;;;17.97
75428;BMP280;64008;55.612;37.698;2023-03-15T06:23:28;99183.25;;;17.93
75428;BMP280;64008;55.612;37.698;2023-03-15T06:25:53;99174.56;;;18.01
75428;BMP280;64008;55.612;37.698;2023-03-15T06:28:19;99176.56;;;17.96
75428;BMP280;64008;55.612;37.698;2023-03-15T06:30:44;99179.63;;;17.84
75428;BMP280;64008;55.612;37.698;2023-03-15T06:33:10;99181.34;;;17.93
75428;BMP280;64008;55.612;37.698;2023-03-15T06:35:36;99175.63;;;17.86
75428;BMP280;64008;55.612;37.698;2023-03-15T06:38:01;99180.13;;;18.05
75428;BMP280;64008;55.612;37.698;2023-03-15T06:40:27;99168.00;;;18.12
75428;BMP280;64008;55.612;37.698;2023-03-15T06:42:52;99185.13;;;18.11
75428;BMP280;64008;55.612;37.698;2023-03-15T06:45:18;99181.91;;;18.09
75428;BMP280;64008;55.612;37.698;2023-03-15T06:47:44;99188.59;;;18.12
75428;BMP280;64008;55.612;37.698;2023-03-15T06:50:10;99200.09;;;18.26
75428;BMP280;64008;55.612;37.698;2023-03-15T06:52:36;99203.84;;;18.25
75428;BMP280;64008;55.612;37.698;2023-03-15T06:55:03;99206.34;;;18.22
75428;BMP280;64008;55.612;37.698;2023-03-15T06:57:28;99191.31;;;18.26
75428;BMP280;64008;55.612;37.698;2023-03-15T06:59:54;99191.22;;;18.31
75428;BMP280;64008;55.612;37.698;2023-03-15T07:02:19;99190.56;;;18.20
75428;BMP280;64008;55.612;37.698;2023-03-15T07:04:45;99180.66;;;18.21
75428;BMP280;64008;55.612;37.698;2023-03-15T07:07:12;99188.81;;;17.97
75428;BMP280;64008;55.612;37.698;2023-03-15T07:09:38;99190.53;;;18.06
75428;BMP280;64008;55.612;37.698;2023-03-15T07:12:04;99190.66;;;18.15
75428;BMP280;64008;55.612;37.698;2023-03-15T07:14:30;99185.72;;;18.22
75428;BMP280;64008;55.612;37.698;2023-03-15T07:16:55;99188.88;;;18.10
75428;BMP280;64008;55.612;37.698;2023-03-15T07:19:21;99188.19;;;18.19
75428;BMP280;64008;55.612;37.698;2023-03-15T07:21:46;99188.97;;;18.19
75428;BMP280;64008;55.612;37.698;2023-03-15T07:24:12;99199.50;;;18.29
75428;BMP280;64008;55.612;37.698;2023-03-15T07:26:37;99203.84;;;18.25
75428;BMP280;64008;55.612;37.698;2023-03-15T07:29:03;99204.78;;;18.34
75428;BMP280;64008;55.612;37.698;2023-03-15T07:31:28;99209.06;;;18.35
75428;BMP280;64008;55.612;37.698;2023-03-15T07:33:54;99211.03;;;18.44
75428;BMP280;64008;55.612;37.698;2023-03-15T07:36:20;99217.25;;;18.53
75428;BMP280;64008;55.612;37.698;2023-03-15T07:38:46;99224.69;;;18.56
75428;BMP280;64008;55.612;37.698;2023-03-15T07:41:12;99228.41;;;18.60
75428;BMP280;64008;55.612;37.698;2023-03-15T07:43:38;99231.44;;;18.07
75428;BMP280;64008;55.612;37.698;2023-03-15T07:46:03;99233.03;;;17.89
75428;BMP280;64008;55.612;37.698;2023-03-15T07:48:30;99233.69;;;17.62
75428;BMP280;64008;55.612;37.698;2023-03-15T07:50:56;99245.06;;;16.52
75428;BMP280;64008;55.612;37.698;2023-03-15T07:53:21;99244.50;;;16.79
75428;BMP280;64008;55.612;37.698;2023-03-15T07:55:47;99247.09;;;16.90
75428;BMP280;64008;55.612;37.698;2023-03-15T07:58:13;99233.84;;;16.79
75428;BMP280;64008;55.612;37.698;2023-03-15T08:00:39;99254.38;;;16.79
75428;BMP280;64008;55.612;37.698;2023-03-15T08:03:04;99256.25;;;16.15
75428;BMP280;64008;55.612;37.698;2023-03-15T08:05:32;99266.66;;;17.71
75428;BMP280;64008;55.612;37.698;2023-03-15T08:07:58;99255.59;;;18.34
75428;BMP280;64008;55.612;37.698;2023-03-15T08:10:24;99256.78;;;18.56
75428;BMP280;64008;55.612;37.698;2023-03-15T08:12:49;99254.66;;;18.72
75428;BMP280;64008;55.612;37.698;2023-03-15T08:15:15;99258.75;;;18.83
75428;BMP280;64008;55.612;37.698;2023-03-15T08:17:41;99262.31;;;18.92
75428;BMP280;64008;55.612;37.698;2023-03-15T08:20:09;99254.78;;;19.08
75428;BMP280;64008;55.612;37.698;2023-03-15T08:22:38;99260.63;;;19.10
75428;BMP280;64008;55.612;37.698;2023-03-15T08:25:05;99252.00;;;18.99
75428;BMP280;64008;55.612;37.698;2023-03-15T08:27:30;99259.75;;;19.15
75428;BMP280;64008;55.612;37.698;2023-03-15T08:29:56;99240.28;;;19.23
75428;BMP280;64008;55.612;37.698;2023-03-15T08:32:21;99246.53;;;19.18
75428;BMP280;64008;55.612;37.698;2023-03-15T08:34:47;99253.38;;;19.25
75428;BMP280;64008;55.612;37.698;2023-03-15T08:37:13;99249.63;;;19.26
75428;BMP280;64008;55.612;37.698;2023-03-15T08:39:39;99252.59;;;19.24
75428;BMP280;64008;55.612;37.698;2023-03-15T08:42:05;99255.47;;;19.28
75428;BMP280;64008;55.612;37.698;2023-03-15T08:44:31;99247.94;;;19.30
75428;BMP280;64008;55.612;37.698;2023-03-15T08:46:56;99260.72;;;19.19
75428;BMP280;64008;55.612;37.698;2023-03-15T08:49:22;99253.84;;;19.27
75428;BMP280;64008;55.612;37.698;2023-03-15T08:51:47;99261.78;;;19.32
75428;BMP280;64008;55.612;37.698;2023-03-15T08:54:13;99243.03;;;19.32
75428;BMP280;64008;55.612;37.698;2023-03-15T08:56:40;99265.16;;;19.37
75428;BMP280;64008;55.612;37.698;2023-03-15T08:59:09;99255.47;;;19.28
75428;BMP280;64008;55.612;37.698;2023-03-15T09:01:34;99254.66;;;19.13
75428;BMP280;64008;55.612;37.698;2023-03-15T09:04:01;99252.06;;;19.22
75428;BMP280;64008;55.612;37.698;2023-03-15T09:06:27;99261.25;;;19.21
75428;BMP280;64008;55.612;37.698;2023-03-15T09:08:53;99246.59;;;19.41
75428;BMP280;64008;55.612;37.698;2023-03-15T09:11:19;99245.81;;;19.40
75428;BMP280;64008;55.612;37.698;2023-03-15T09:13:44;99255.53;;;19.50
75428;BMP280;64008;55.612;37.698;2023-03-15T09:16:10;99239.94;;;19.52
75428;BMP280;64008;55.612;37.698;2023-03-15T09:18:35;99250.22;;;19.59
75428;BMP280;64008;55.612;37.698;2023-03-15T09:21:01;99248.69;;;19.44
75428;BMP280;64008;55.612;37.698;2023-03-15T09:23:26;99254.13;;;19.53
75428;BMP280;64008;55.612;37.698;2023-03-15T09:25:52;99248.97;;;19.56
75428;BMP280;64008;55.612;37.698;2023-03-15T09:28:17;99265.22;;;19.60
75428;BMP280;64008;55.612;37.698;2023-03-15T09:30:43;99259.94;;;19.69
75428;BMP280;64008;55.612;37.698;2023-03-15T09:33:08;99247.34;;;19.69
75428;BMP280;64008;55.612;37.698;2023-03-15T09:35:34;99258.59;;;19.57
75428;BMP280;64008;55.612;37.698;2023-03-15T09:37:59;99255.28;;;19.60
75428;BMP280;64008;55.612;37.698;2023-03-15T09:48:50;99242.81;;;19.78
75428;BMP280;64008;55.612;37.698;2023-03-15T09:54:39;99237.97;;;20.03
75428;BMP280;64008;55.612;37.698;2023-03-15T09:57:11;99233.66;;;19.93
75428;BMP280;64008;55.612;37.698;2023-03-15T09:59:41;99244.91;;;20.04
75428;BMP280;64008;55.612;37.698;2023-03-15T10:02:20;99241.31;;;20.08
75428;BMP280;64008;55.612;37.698;2023-03-15T10:04:48;99228.91;;;20.21
75428;BMP280;64008;55.612;37.698;2023-03-15T10:07:16;99219.38;;;20.38
75428;BMP280;64008;55.612;37.698;2023-03-15T10:09:42;99234.13;;;20.49
75428;BMP280;64008;55.612;37.698;2023-03-15T10:12:09;99225.97;;;20.71
75428;BMP280;64008;55.612;37.698;2023-03-15T10:14:50;99233.44;;;20.74
75428;BMP280;64008;55.612;37.698;2023-03-15T10:17:36;99231.84;;;20.73
75428;BMP280;64008;55.612;37.698;2023-03-15T10:20:12;99216.84;;;20.72
75428;BMP280;64008;55.612;37.698;2023-03-15T10:23:27;99223.75;;;20.65
75428;BMP280;64008;55.612;37.698;2023-03-15T10:25:57;99214.53;;;20.48
75428;BMP280;64008;55.612;37.698;2023-03-15T10:28:26;99218.41;;;20.34
75428;BMP280;64008;55.612;37.698;2023-03-15T10:30:53;99221.88;;;20.34
75428;BMP280;64008;55.612;37.698;2023-03-15T10:35:56;99220.13;;;20.61
75428;BMP280;64008;55.612;37.698;2023-03-15T10:38:23;99224.09;;;20.72
75428;BMP280;64008;55.612;37.698;2023-03-15T10:43:25;99228.97;;;20.70
75428;BMP280;64008;55.612;37.698;2023-03-15T10:46:20;99237.34;;;20.68
75428;BMP280;64008;55.612;37.698;2023-03-15T10:48:56;99241.84;;;20.50
75428;BMP280;64008;55.612;37.698;2023-03-15T10:51:31;99234.75;;;20.55
75428;BMP280;64008;55.612;37.698;2023-03-15T10:54:07;99230.78;;;20.43
75428;BMP280;64008;55.612;37.698;2023-03-15T10:56:43;99231.72;;;20.47
75428;BMP280;64008;55.612;37.698;2023-03-15T10:59:35;99233.66;;;20.56
75428;BMP280;64008;55.612;37.698;2023-03-15T11:04:40;99235.03;;;20.44
75428;BMP280;64008;55.612;37.698;2023-03-15T11:07:05;99231.69;;;20.39
75428;BMP280;64008;55.612;37.698;2023-03-15T11:09:43;99232.88;;;20.55
75428;BMP280;64008;55.612;37.698;2023-03-15T11:12:36;99246.38;;;20.72
75428;BMP280;64008;55.612;37.698;2023-03-15T11:15:05;99243.69;;;20.72
75428;BMP280;64008;55.612;37.698;2023-03-15T11:17:41;99241.63;;;20.69
75428;BMP280;64008;55.612;37.698;2023-03-15T11:20:29;99232.88;;;20.55
75428;BMP280;64008;55.612;37.698;2023-03-15T11:22:56;99229.97;;;20.74
75428;BMP280;64008;55.612;37.698;2023-03-15T11:25:27;99232.94;;;20.72
75428;BMP280;64008;55.612;37.698;2023-03-15T11:27:55;99232.16;;;20.72
75428;BMP280;64008;55.612;37.698;2023-03-15T11:30:26;99244.03;;;20.80
75428;BMP280;64008;55.612;37.698;2023-03-15T11:32:53;99227.34;;;21.17
75428;BMP280;64008;55.612;37.698;2023-03-15T11:35:25;99224.97;;;20.99
75428;BMP280;64008;55.612;37.698;2023-03-15T11:37:59;99235.06;;;21.02
75428;BMP280;64008;55.612;37.698;2023-03-15T11:40:33;99243.81;;;21.16
75428;BMP280;64008;55.612;37.698;2023-03-15T11:43:07;99238.63;;;21.28
75428;BMP280;64008;55.612;37.698;2023-03-15T11:45:50;99236.72;;;21.37
75428;BMP280;64008;55.612;37.698;2023-03-15T11:48:41;99244.00;;;22.27
75428;BMP280;64008;55.612;37.698;2023-03-15T11:51:10;99241.41;;;22.10
75428;BMP280;64008;55.612;37.698;2023-03-15T11:53:42;99241.13;;;21.85
75428;BMP280;64008;55.612;37.698;2023-03-15T11:56:27;99240.53;;;22.95
75428;BMP280;64008;55.612;37.698;2023-03-15T11:59:19;99234.00;;;22.37
75428;BMP280;64008;55.612;37.698;2023-03-15T12:01:50;99223.28;;;22.66
75428;BMP280;64008;55.612;37.698;2023-03-15T12:06:57;99229.94;;;23.32
75428;BMP280;64008;55.612;37.698;2023-03-15T12:18:02;99230.72;;;22.69
75428;BMP280;64008;55.612;37.698;2023-03-15T12:20:39;99242.09;;;22.37
75428;BMP280;64008;55.612;37.698;2023-03-15T12:25:56;99245.19;;;22.09
75428;BMP280;64008;55.612;37.698;2023-03-15T12:28:34;99260.84;;;22.07
75428;BMP280;64008;55.612;37.698;2023-03-15T12:31:02;99247.44;;;21.98
75428;BMP280;64008;55.612;37.698;2023-03-15T12:33:30;99246.63;;;22.06
75428;BMP280;64008;55.612;37.698;2023-03-15T12:36:58;99253.03;;;22.32
75428;BMP280;64008;55.612;37.698;2023-03-15T12:41:46;99253.41;;;22.60
75428;BMP280;64008;55.612;37.698;2023-03-15T12:44:24;99253.72;;;22.58
75428;BMP280;64008;55.612;37.698;2023-03-15T12:51:54;99253.50;;;22.72
75428;BMP280;64008;55.612;37.698;2023-03-15T12:54:21;99250.16;;;22.45
75428;BMP280;64008;55.612;37.698;2023-03-15T12:56:51;99273.16;;;22.34
75428;BMP280;64008;55.612;37.698;2023-03-15T12:59:27;99262.22;;;22.31
75428;BMP280;64008;55.612;37.698;2023-03-15T13:01:54;99261.88;;;22.41
75428;BMP280;64008;55.612;37.698;2023-03-15T13:04:21;99248.41;;;22.79
75428;BMP280;64008;55.612;37.698;2023-03-15T13:10:00;99251.38;;;24.40
75428;BMP280;64008;55.612;37.698;2023-03-15T13:13:00;99248.78;;;24.44
75428;BMP280;64008;55.612;37.698;2023-03-15T13:15:35;99254.44;;;24.63
75428;BMP280;64008;55.612;37.698;2023-03-15T13:18:03;99253.66;;;24.63
75428;BMP280;64008;55.612;37.698;2023-03-15T13:20:44;99237.66;;;24.58
75428;BMP280;64008;55.612;37.698;2023-03-15T13:23:21;99244.19;;;24.32
75428;BMP280;64008;55.612;37.698;2023-03-15T13:28:36;99232.88;;;24.67
75428;BMP280;64008;55.612;37.698;2023-03-15T13:31:11;99236.72;;;24.90
75428;BMP280;64008;55.612;37.698;2023-03-15T13:33:40;99238.53;;;24.62
75428;BMP280;64008;55.612;37.698;2023-03-15T13:36:17;99228.72;;;24.20
75428;BMP280;64008;55.612;37.698;2023-03-15T13:38:49;99241.47;;;23.41
75428;BMP280;64008;55.612;37.698;2023-03-15T13:43:46;99237.03;;;22.73
75428;BMP280;64008;55.612;37.698;2023-03-15T13:46:16;99249.00;;;22.55
75428;BMP280;64008;55.612;37.698;2023-03-15T13:48:44;99255.91;;;22.18
75428;BMP280;64008;55.612;37.698;2023-03-15T13:51:21;99246.50;;;21.85
75428;BMP280;64008;55.612;37.698;2023-03-15T13:53:49;99244.47;;;21.65
75428;BMP280;64008;55.612;37.698;2023-03-15T13:56:26;99250.63;;;21.66
75428;BMP280;64008;55.612;37.698;2023-03-15T13:58:52;99249.19;;;21.51
75428;BMP280;64008;55.612;37.698;2023-03-15T14:01:17;99248.91;;;21.52
75428;BMP280;64008;55.612;37.698;2023-03-15T14:03:48;99245.75;;;21.33
75428;BMP280;64008;55.612;37.698;2023-03-15T14:06:21;99242.72;;;21.34
75428;BMP280;64008;55.612;37.698;2023-03-15T14:08:48;99245.41;;;21.34
75428;BMP280;64008;55.612;37.698;2023-03-15T14:11:32;99237.00;;;21.36
75428;BMP280;64008;55.612;37.698;2023-03-15T14:14:00;99244.44;;;21.39
75428;BMP280;64008;55.612;37.698;2023-03-15T14:16:38;99250.78;;;21.34
75428;BMP280;64008;55.612;37.698;2023-03-15T14:21:41;99244.00;;;21.46
75428;BMP280;64008;55.612;37.698;2023-03-15T14:24:35;99240.16;;;21.90
75428;BMP280;64008;55.612;37.698;2023-03-15T14:27:05;99243.00;;;22.02
75428;BMP280;64008;55.612;37.698;2023-03-15T14:29:35;99228.41;;;23.10
75428;BMP280;64008;55.612;37.698;2023-03-15T14:32:05;99238.41;;;23.63
75428;BMP280;64008;55.612;37.698;2023-03-15T14:34:45;99244.75;;;23.80
75428;BMP280;64008;55.612;37.698;2023-03-15T14:37:37;99237.00;;;24.48
75428;BMP280;64008;55.612;37.698;2023-03-15T14:42:59;99250.47;;;25.26
75428;BMP280;64008;55.612;37.698;2023-03-15T14:45:26;99245.84;;;25.26
75428;BMP280;64008;55.612;37.698;2023-03-15T14:47:53;99242.50;;;24.52
75428;BMP280;64008;55.612;37.698;2023-03-15T14:50:22;99255.19;;;23.06
75428;BMP280;64008;55.612;37.698;2023-03-15T14:52:49;99249.97;;;22.50
75428;BMP280;64008;55.612;37.698;2023-03-15T14:55:18;99249.47;;;22.10
75428;BMP280;64008;55.612;37.698;2023-03-15T14:57:45;99250.13;;;21.90
75428;BMP280;64008;55.612;37.698;2023-03-15T15:00:16;99250.47;;;21.79
75428;BMP280;64008;55.612;37.698;2023-03-15T15:02:43;99247.94;;;21.66
75428;BMP280;64008;55.612;37.698;2023-03-15T15:05:31;99245.91;;;21.54
75428;BMP280;64008;55.612;37.698;2023-03-15T15:08:19;99247.75;;;21.36
75428;BMP280;64008;55.612;37.698;2023-03-15T15:10:47;99254.25;;;20.69